createdAt,value
2017-10-30T00:02:27.355Z,4.30
2017-10-30T00:04:55.167Z,4.30
2017-10-30T00:07:23.683Z,4.30
2017-10-30T00:09:51.432Z,4.30
2017-10-30T00:12:19.342Z,4.30
2017-10-30T00:14:47.205Z,4.30
2017-10-30T00:17:14.951Z,4.30
2017-10-30T00:19:42.831Z,4.30
2017-10-30T00:22:10.576Z,4.40
2017-10-30T00:24:38.325Z,4.40
2017-10-30T00:27:06.132Z,4.40
2017-10-30T00:29:33.880Z,4.40
2017-10-30T00:32:01.639Z,4.30
2017-10-30T00:34:29.555Z,4.30
2017-10-30T00:36:57.365Z,4.30
2017-10-30T00:39:25.230Z,4.30
2017-10-30T00:41:53.042Z,4.30
2017-10-30T00:44:20.856Z,4.30
2017-10-30T00:46:48.618Z,4.30
2017-10-30T00:49:16.426Z,4.40
2017-10-30T00:51:44.176Z,4.40
2017-10-30T00:54:12.688Z,4.40
2017-10-30T00:56:40.501Z,4.40
2017-10-30T00:59:08.264Z,4.50
2017-10-30T01:01:36.082Z,4.60
2017-10-30T01:04:03.971Z,4.70
2017-10-30T01:06:31.737Z,4.70
2017-10-30T01:08:59.490Z,4.70
2017-10-30T01:11:27.303Z,4.70
2017-10-30T01:13:55.078Z,4.70
2017-10-30T01:16:22.882Z,4.70
2017-10-30T01:18:50.691Z,4.70
2017-10-30T01:21:18.510Z,4.60
2017-10-30T01:23:46.373Z,4.60
2017-10-30T01:26:14.208Z,4.50
2017-10-30T01:28:41.956Z,4.60
2017-10-30T01:31:09.771Z,4.60
2017-10-30T01:33:37.725Z,4.60
2017-10-30T01:36:05.481Z,4.70
2017-10-30T01:38:33.247Z,4.80
2017-10-30T01:41:01.113Z,4.80
2017-10-30T01:43:28.860Z,4.80
2017-10-30T01:45:56.616Z,4.70
2017-10-30T01:48:25.322Z,4.80
2017-10-30T01:50:53.068Z,4.80
2017-10-30T01:53:20.818Z,4.90
2017-10-30T01:55:48.708Z,4.90
2017-10-30T01:58:16.570Z,4.80
2017-10-30T02:00:44.433Z,4.80
2017-10-30T02:03:12.240Z,4.60
2017-10-30T02:05:40.775Z,4.50
2017-10-30T02:08:08.641Z,4.50
2017-10-30T02:10:36.504Z,4.50
2017-10-30T02:13:04.366Z,4.50
2017-10-30T02:15:32.203Z,4.40
2017-10-30T02:18:00.096Z,4.30
2017-10-30T02:20:27.848Z,4.30
2017-10-30T02:22:55.600Z,4.20
2017-10-30T02:25:23.413Z,4.20
2017-10-30T02:27:51.935Z,4.10
2017-10-30T02:30:19.687Z,4.10
2017-10-30T02:32:47.587Z,4.10
2017-10-30T02:35:15.450Z,4.10
2017-10-30T02:37:43.200Z,4.20
2017-10-30T02:40:11.076Z,4.20
2017-10-30T02:42:38.828Z,4.20
2017-10-30T02:45:06.580Z,4.20
2017-10-30T02:47:34.463Z,4.20
2017-10-30T02:50:02.332Z,4.20
2017-10-30T02:52:30.163Z,4.30
2017-10-30T02:54:58.056Z,4.40
2017-10-30T02:57:25.919Z,4.50
2017-10-30T02:59:53.785Z,4.40
2017-10-30T03:02:21.748Z,4.40
2017-10-30T03:04:49.512Z,4.40
2017-10-30T03:07:17.260Z,4.50
2017-10-30T03:09:45.233Z,4.50
2017-10-30T03:12:12.996Z,4.40
2017-10-30T03:14:40.752Z,4.30
2017-10-30T03:17:08.565Z,4.40
2017-10-30T03:19:37.084Z,4.40
2017-10-30T03:22:04.966Z,4.40
2017-10-30T03:24:32.831Z,4.40
2017-10-30T03:27:00.584Z,4.40
2017-10-30T03:29:29.174Z,4.20
2017-10-30T03:31:56.987Z,4.20
2017-10-30T03:34:25.620Z,4.00
2017-10-30T03:36:53.482Z,4.00
2017-10-30T03:39:21.303Z,4.00
2017-10-30T03:41:49.113Z,4.00
2017-10-30T03:44:16.865Z,3.90
2017-10-30T03:46:44.734Z,3.90
2017-10-30T03:49:12.495Z,3.90
2017-10-30T03:51:40.360Z,3.90
2017-10-30T03:54:08.167Z,3.90
2017-10-30T03:56:35.989Z,4.00
2017-10-30T03:59:03.736Z,4.00
2017-10-30T04:01:31.549Z,4.00
2017-10-30T04:03:59.380Z,3.90
2017-10-30T04:06:27.236Z,3.80
2017-10-30T04:08:55.045Z,3.80
2017-10-30T04:11:22.795Z,3.70
2017-10-30T04:13:51.308Z,3.70
2017-10-30T04:16:19.204Z,3.70
2017-10-30T04:18:47.068Z,3.70
2017-10-30T04:21:14.815Z,3.70
2017-10-30T04:23:43.384Z,3.60
2017-10-30T04:26:11.172Z,3.60
2017-10-30T04:28:38.916Z,3.60
2017-10-30T04:31:06.733Z,3.60
2017-10-30T04:33:35.248Z,3.80
2017-10-30T04:36:03.687Z,3.80
2017-10-30T04:38:32.307Z,4.00
2017-10-30T04:41:00.055Z,4.00
2017-10-30T04:43:27.810Z,4.10
2017-10-30T04:45:55.620Z,4.20
2017-10-30T04:48:23.459Z,4.10
2017-10-30T04:50:51.209Z,4.00
2017-10-30T04:53:19.110Z,3.90
2017-10-30T04:55:46.864Z,3.80
2017-10-30T04:58:14.613Z,3.70
2017-10-30T05:00:43.315Z,3.50
2017-10-30T05:03:11.180Z,3.50
2017-10-30T05:05:39.043Z,3.50
2017-10-30T05:08:06.853Z,3.50
2017-10-30T05:10:34.688Z,3.50
2017-10-30T05:13:03.249Z,3.50
2017-10-30T05:15:31.114Z,3.50
2017-10-30T05:17:58.961Z,3.40
2017-10-30T05:20:26.847Z,3.40
2017-10-30T05:22:54.685Z,3.40
2017-10-30T05:25:22.427Z,3.40
2017-10-30T05:27:50.230Z,3.50
2017-10-30T05:30:18.051Z,3.40
2017-10-30T05:32:45.856Z,3.40
2017-10-30T05:35:13.723Z,3.40
2017-10-30T05:37:41.556Z,3.50
2017-10-30T05:40:09.345Z,3.50
2017-10-30T05:42:37.106Z,3.50
2017-10-30T05:45:04.919Z,3.50
2017-10-30T05:47:32.677Z,3.60
2017-10-30T05:50:00.424Z,3.70
2017-10-30T05:52:28.994Z,3.90
2017-10-30T05:54:56.836Z,3.90
2017-10-30T05:57:24.584Z,4.00
2017-10-30T05:59:53.207Z,4.10
2017-10-30T06:02:21.760Z,4.20
2017-10-30T06:04:49.623Z,4.10
2017-10-30T06:07:17.510Z,4.20
2017-10-30T06:09:45.259Z,4.20
2017-10-30T06:12:13.820Z,4.20
2017-10-30T06:14:41.631Z,4.30
2017-10-30T06:17:10.173Z,4.50
2017-10-30T06:19:38.037Z,4.50
2017-10-30T06:22:05.844Z,4.50
2017-10-30T06:24:34.480Z,4.40
2017-10-30T06:27:02.229Z,4.40
2017-10-30T06:29:30.080Z,4.40
2017-10-30T06:31:57.832Z,4.40
2017-10-30T06:34:25.635Z,4.40
2017-10-30T06:36:53.443Z,4.40
2017-10-30T06:39:21.188Z,4.40
2017-10-30T06:41:49.699Z,4.70
2017-10-30T06:44:17.503Z,4.70
2017-10-30T06:46:45.252Z,4.90
2017-10-30T06:49:13.008Z,5.20
2017-10-30T06:51:40.823Z,5.40
2017-10-30T06:54:09.336Z,6.00
2017-10-30T06:56:37.084Z,6.00
2017-10-30T06:59:04.908Z,6.40
2017-10-30T07:01:32.695Z,7.00
2017-10-30T07:04:00.509Z,7.90
2017-10-30T07:06:29.193Z,7.10
2017-10-30T07:21:44.729Z,6.10
2017-10-30T07:24:13.280Z,6.10
2017-10-30T07:26:41.145Z,6.10
2017-10-30T07:29:08.951Z,6.10
2017-10-30T07:31:37.590Z,6.00
2017-10-30T07:34:05.353Z,6.00
2017-10-30T07:36:33.152Z,6.10
2017-10-30T07:39:01.665Z,6.10
2017-10-30T07:41:29.456Z,6.10
2017-10-30T07:43:57.258Z,6.10
2017-10-30T07:46:25.771Z,6.00
2017-10-30T07:48:53.519Z,6.00
2017-10-30T07:51:21.423Z,6.40
2017-10-30T07:53:49.172Z,6.80
2017-10-30T07:56:16.947Z,6.90
2017-10-30T07:58:44.760Z,6.80
2017-10-30T08:01:12.515Z,6.70
2017-10-30T08:03:41.076Z,7.60
2017-10-30T08:06:08.914Z,7.60
2017-10-30T08:08:37.426Z,9.00
2017-10-30T08:11:05.937Z,9.90
2017-10-30T08:13:33.750Z,9.80
2017-10-30T08:16:01.599Z,12.20
2017-10-30T08:18:29.370Z,12.70
2017-10-30T08:20:57.178Z,10.60
2017-10-30T08:23:24.923Z,9.10
2017-10-30T08:25:53.465Z,8.00
2017-10-30T08:28:21.279Z,7.90
2017-10-30T08:30:49.030Z,7.60
2017-10-30T08:33:17.538Z,7.20
2017-10-30T08:35:46.252Z,7.10
2017-10-30T08:38:14.222Z,7.10
2017-10-30T08:40:41.971Z,7.00
2017-10-30T08:43:09.803Z,7.10
2017-10-30T08:45:37.548Z,7.40
2017-10-30T08:48:06.187Z,7.80
2017-10-30T08:50:34.051Z,7.80
2017-10-30T08:53:01.915Z,7.60
2017-10-30T08:55:29.669Z,7.70
2017-10-30T08:57:57.484Z,8.00
2017-10-30T09:00:26.007Z,7.80
2017-10-30T09:02:53.759Z,7.80
2017-10-30T09:05:21.578Z,7.80
2017-10-30T09:07:49.346Z,7.90
2017-10-30T09:10:17.897Z,7.70
2017-10-30T09:12:45.716Z,7.70
2017-10-30T09:15:13.515Z,7.60
2017-10-30T09:17:41.264Z,7.70
2017-10-30T09:20:09.849Z,7.70
2017-10-30T09:22:37.717Z,7.70
2017-10-30T09:25:05.580Z,7.70
2017-10-30T09:27:33.400Z,7.70
2017-10-30T09:30:01.155Z,7.80
2017-10-30T09:32:28.967Z,7.90
2017-10-30T09:34:56.785Z,8.00
2017-10-30T09:37:24.534Z,8.10
2017-10-30T09:39:53.176Z,7.90
2017-10-30T09:42:21.037Z,7.80
2017-10-30T09:44:48.903Z,7.80
2017-10-30T09:47:16.739Z,7.80
2017-10-30T09:49:44.603Z,8.10
2017-10-30T09:52:12.355Z,8.30
2017-10-30T09:54:40.128Z,8.30
2017-10-30T09:57:07.930Z,8.20
2017-10-30T09:59:35.670Z,8.20
2017-10-30T10:02:03.419Z,8.10
2017-10-30T10:04:31.234Z,8.10
2017-10-30T10:06:59.885Z,8.50
2017-10-30T10:09:27.747Z,8.50
2017-10-30T10:11:55.609Z,8.70
2017-10-30T10:14:23.411Z,8.90
2017-10-30T10:16:51.944Z,9.00
2017-10-30T10:19:19.744Z,9.00
2017-10-30T10:21:48.262Z,8.70
2017-10-30T10:24:16.006Z,8.70
2017-10-30T10:26:43.808Z,8.40
2017-10-30T10:29:11.566Z,8.20
2017-10-30T10:31:39.344Z,8.10
2017-10-30T10:34:07.206Z,8.30
2017-10-30T10:36:35.715Z,8.80
2017-10-30T10:39:04.269Z,8.80
2017-10-30T10:41:32.079Z,8.70
2017-10-30T10:43:59.819Z,8.80
2017-10-30T10:46:28.469Z,9.00
2017-10-30T10:48:56.345Z,8.90
2017-10-30T10:51:24.093Z,8.80
2017-10-30T10:53:51.856Z,8.90
2017-10-30T10:56:19.725Z,8.80
2017-10-30T10:58:47.688Z,8.50
2017-10-30T11:01:15.436Z,8.40
2017-10-30T11:03:44.015Z,8.60
2017-10-30T11:06:11.895Z,8.60
2017-10-30T11:08:39.758Z,8.70
2017-10-30T11:11:07.622Z,8.90
2017-10-30T11:13:35.487Z,9.10
2017-10-30T11:16:03.245Z,9.30
2017-10-30T11:18:31.111Z,9.30
2017-10-30T11:20:58.872Z,9.20
2017-10-30T11:23:26.616Z,9.20
2017-10-30T11:25:54.454Z,9.10
2017-10-30T11:28:22.260Z,8.90
2017-10-30T11:30:50.018Z,9.00
2017-10-30T11:33:17.886Z,9.20
2017-10-30T11:35:45.648Z,9.30
2017-10-30T11:38:13.399Z,9.60
2017-10-30T11:40:41.972Z,9.60
2017-10-30T11:43:09.724Z,9.60
2017-10-30T11:45:37.481Z,9.50
2017-10-30T11:48:05.284Z,9.10
2017-10-30T11:50:33.026Z,8.90
2017-10-30T11:53:00.771Z,9.20
2017-10-30T11:55:28.576Z,9.20
2017-10-30T11:57:56.348Z,9.10
2017-10-30T12:00:24.850Z,8.80
2017-10-30T12:02:52.652Z,8.80
2017-10-30T12:05:20.398Z,8.60
2017-10-30T12:07:48.181Z,8.40
2017-10-30T12:10:15.992Z,8.20
2017-10-30T12:12:44.530Z,7.80
2017-10-30T12:15:12.297Z,7.80
2017-10-30T12:17:40.100Z,7.70
2017-10-30T12:20:07.916Z,7.60
2017-10-30T12:22:35.784Z,7.50
2017-10-30T12:25:03.642Z,7.50
2017-10-30T12:27:31.395Z,7.50
2017-10-30T12:29:59.172Z,7.40
2017-10-30T12:32:27.030Z,7.10
2017-10-30T12:34:54.895Z,6.90
2017-10-30T12:37:22.731Z,6.80
2017-10-30T12:39:50.543Z,6.50
2017-10-30T12:42:18.384Z,6.30
2017-10-30T12:44:46.136Z,6.30
2017-10-30T12:47:13.941Z,6.20
2017-10-30T12:49:42.590Z,6.20
2017-10-30T12:52:10.456Z,6.20
2017-10-30T12:54:38.319Z,6.20
2017-10-30T12:57:06.063Z,6.20
2017-10-30T12:59:33.844Z,6.20
2017-10-30T13:02:01.672Z,6.30
2017-10-30T13:04:29.473Z,6.40
2017-10-30T13:06:57.219Z,6.50
2017-10-30T13:09:25.093Z,6.70
2017-10-30T13:11:52.957Z,6.90
2017-10-30T13:14:20.830Z,7.10
2017-10-30T13:16:48.658Z,7.30
2017-10-30T13:19:16.423Z,7.50
2017-10-30T13:21:44.208Z,7.70
2017-10-30T13:24:12.020Z,7.80
2017-10-30T13:26:39.763Z,7.80
2017-10-30T13:29:08.268Z,7.80
2017-10-30T13:31:36.176Z,7.80
2017-10-30T13:34:03.915Z,7.60
2017-10-30T13:36:31.660Z,7.40
2017-10-30T13:38:59.468Z,7.20
2017-10-30T13:41:27.328Z,7.20
2017-10-30T13:43:55.186Z,7.30
2017-10-30T13:46:22.988Z,7.40
2017-10-30T13:48:51.502Z,7.70
2017-10-30T13:51:19.247Z,7.70
2017-10-30T13:53:47.156Z,7.70
2017-10-30T13:56:14.906Z,7.60
2017-10-30T13:58:42.752Z,7.50
2017-10-30T14:01:10.556Z,7.40
2017-10-30T14:03:38.410Z,7.30
2017-10-30T14:06:06.270Z,7.30
2017-10-30T14:08:34.071Z,7.20
2017-10-30T14:11:02.583Z,7.00
2017-10-30T14:13:30.322Z,6.90
2017-10-30T14:15:58.239Z,6.90
2017-10-30T14:18:25.990Z,6.80
2017-10-30T14:20:53.865Z,6.70
2017-10-30T14:23:21.680Z,6.70
2017-10-30T14:25:49.490Z,6.70
2017-10-30T14:28:17.247Z,6.70
2017-10-30T14:30:45.116Z,6.60
2017-10-30T14:33:12.883Z,6.60
2017-10-30T14:35:40.652Z,6.60
2017-10-30T14:38:08.487Z,6.50
2017-10-30T14:40:36.366Z,6.40
2017-10-30T14:43:04.119Z,6.30
2017-10-30T14:45:31.992Z,6.20
2017-10-30T14:47:59.856Z,6.20
2017-10-30T14:50:27.719Z,6.20
2017-10-30T14:52:55.582Z,6.10
2017-10-30T14:55:23.448Z,6.10
2017-10-30T14:57:51.196Z,6.00
2017-10-30T15:00:21.020Z,6.00
2017-10-30T15:02:48.780Z,5.90
2017-10-30T15:05:16.548Z,5.80
2017-10-30T15:07:44.655Z,5.80
2017-10-30T15:10:13.192Z,5.70
2017-10-30T15:12:40.940Z,5.70
2017-10-30T15:15:08.787Z,5.70
2017-10-30T15:17:36.580Z,5.60
2017-10-30T15:20:04.330Z,5.50
2017-10-30T15:22:32.135Z,5.50
2017-10-30T15:25:00.785Z,5.40
2017-10-30T15:27:28.545Z,5.40
2017-10-30T15:29:56.412Z,5.40
2017-10-30T15:32:24.284Z,5.40
2017-10-30T15:34:52.056Z,5.40
2017-10-30T15:37:19.899Z,5.30
2017-10-30T15:39:47.699Z,5.20
2017-10-30T15:42:16.227Z,5.10
2017-10-30T15:44:44.142Z,5.10
2017-10-30T15:47:12.789Z,5.00
2017-10-30T15:49:40.632Z,5.00
2017-10-30T15:52:08.455Z,4.90
2017-10-30T15:54:36.974Z,4.80
2017-10-30T15:57:04.723Z,4.80
2017-10-30T15:59:32.528Z,4.80
2017-10-30T16:02:00.277Z,4.80
2017-10-30T16:04:28.024Z,4.80
2017-10-30T16:06:55.907Z,4.80
2017-10-30T16:09:23.774Z,4.80
2017-10-30T16:11:51.638Z,4.80
2017-10-30T16:14:19.457Z,4.80
2017-10-30T16:16:47.261Z,4.80
2017-10-30T16:19:15.005Z,4.80
2017-10-30T16:21:43.584Z,4.90
2017-10-30T16:24:11.339Z,4.90
2017-10-30T16:26:39.079Z,4.90
2017-10-30T16:29:06.990Z,4.90
2017-10-30T16:31:34.736Z,4.90
2017-10-30T16:34:02.497Z,4.80
2017-10-30T16:36:30.308Z,4.80
2017-10-30T16:38:58.832Z,4.80
2017-10-30T16:41:26.581Z,4.70
2017-10-30T16:43:54.390Z,4.70
2017-10-30T16:46:22.147Z,4.70
2017-10-30T16:48:49.887Z,4.70
2017-10-30T16:51:17.766Z,4.60
2017-10-30T16:53:45.514Z,4.50
2017-10-30T16:56:13.278Z,4.50
2017-10-30T16:58:41.876Z,4.50
2017-10-30T17:01:09.734Z,4.50
2017-10-30T17:03:37.702Z,4.40
2017-10-30T17:06:05.567Z,4.30
2017-10-30T17:08:33.315Z,4.30
2017-10-30T17:11:01.089Z,4.20
2017-10-30T17:13:28.899Z,4.20
2017-10-30T17:15:56.712Z,4.20
2017-10-30T17:18:24.684Z,4.10
2017-10-30T17:20:52.520Z,4.10
2017-10-30T17:23:20.307Z,4.00
2017-10-30T17:25:48.056Z,4.00
2017-10-30T17:28:15.899Z,3.80
2017-10-30T17:30:44.472Z,3.60
2017-10-30T17:33:12.686Z,3.70
2017-10-30T17:35:40.546Z,3.50
2017-10-30T17:38:08.412Z,3.40
2017-10-30T17:40:36.274Z,3.30
2017-10-30T17:43:04.148Z,3.30
2017-10-30T17:45:31.907Z,3.40
2017-10-30T17:47:59.674Z,3.30
2017-10-30T17:50:27.495Z,3.20
2017-10-30T17:52:55.248Z,3.20
2017-10-30T17:55:23.048Z,3.20
2017-10-30T17:57:51.424Z,3.10
2017-10-30T18:00:19.288Z,3.10
2017-10-30T18:02:47.153Z,3.20
2017-10-30T18:05:15.019Z,3.10
2017-10-30T18:07:42.884Z,3.10
2017-10-30T18:10:10.784Z,3.20
2017-10-30T18:12:39.429Z,3.10
2017-10-30T18:15:07.179Z,3.10
2017-10-30T18:17:34.951Z,3.10
2017-10-30T18:20:02.920Z,3.20
2017-10-30T18:22:31.703Z,3.30
2017-10-30T18:24:59.669Z,3.30
2017-10-30T18:27:27.636Z,3.40
2017-10-30T18:29:55.912Z,3.40
2017-10-30T18:32:23.981Z,3.50
2017-10-30T18:34:51.945Z,3.60
2017-10-30T18:37:19.814Z,3.70
2017-10-30T18:39:47.672Z,3.70
2017-10-30T18:42:16.539Z,3.70
2017-10-30T18:44:44.432Z,3.60
2017-10-30T18:47:12.184Z,3.50
2017-10-30T18:49:40.005Z,3.40
2017-10-30T18:52:07.921Z,3.30
2017-10-30T18:54:35.778Z,3.30
2017-10-30T18:57:04.153Z,3.20
2017-10-30T18:59:32.427Z,3.20
2017-10-30T19:02:00.296Z,3.20
2017-10-30T19:04:29.690Z,3.10
2017-10-30T19:06:57.555Z,3.10
2017-10-30T19:09:26.072Z,2.90
2017-10-30T19:11:53.907Z,2.90
2017-10-30T19:14:21.668Z,2.90
2017-10-30T19:16:49.524Z,2.80
2017-10-30T19:19:17.388Z,2.80
2017-10-30T19:21:45.251Z,2.80
2017-10-30T19:24:13.814Z,2.80
2017-10-30T19:26:41.628Z,2.80
2017-10-30T19:29:10.148Z,2.80
2017-10-30T19:31:37.908Z,2.80
2017-10-30T19:34:05.909Z,2.80
2017-10-30T19:36:33.869Z,2.80
2017-10-30T19:39:01.613Z,2.90
2017-10-30T19:41:29.495Z,3.10
2017-10-30T19:43:57.358Z,3.00
2017-10-30T19:46:25.350Z,3.20
2017-10-30T19:48:54.009Z,3.30
2017-10-30T19:51:21.875Z,3.50
2017-10-30T19:53:49.736Z,3.60
2017-10-30T19:56:17.560Z,3.70
2017-10-30T19:58:46.284Z,3.70
2017-10-30T20:01:14.148Z,3.80
2017-10-30T20:03:41.965Z,3.70
2017-10-30T20:06:15.613Z,3.60
2017-10-30T20:08:49.209Z,3.40
2017-10-30T20:11:22.607Z,3.30
2017-10-30T20:13:50.438Z,3.20
2017-10-30T20:16:18.328Z,3.10
2017-10-30T20:18:46.194Z,3.00
2017-10-30T20:21:14.065Z,2.90
2017-10-30T20:23:41.893Z,2.80
2017-10-30T20:26:09.650Z,2.80
2017-10-30T20:28:37.547Z,2.70
2017-10-30T20:31:06.661Z,2.70
2017-10-30T20:33:35.222Z,2.70
2017-10-30T20:36:03.084Z,2.60
2017-10-30T20:38:31.620Z,2.70
2017-10-30T20:40:59.375Z,2.70
2017-10-30T20:43:27.393Z,2.60
2017-10-30T20:45:55.263Z,2.60
2017-10-30T20:48:23.018Z,2.70
2017-10-30T20:50:50.829Z,2.60
2017-10-30T20:53:18.573Z,2.60
2017-10-30T20:55:47.330Z,2.70
2017-10-30T20:58:16.359Z,2.70
2017-10-30T21:00:45.515Z,2.70
2017-10-30T21:03:17.064Z,2.70
2017-10-30T21:05:45.749Z,2.70
2017-10-30T21:08:13.592Z,2.70
2017-10-30T21:10:41.371Z,2.80
2017-10-30T21:13:10.158Z,2.80
2017-10-30T21:15:38.021Z,2.90
2017-10-30T21:18:06.603Z,2.90
2017-10-30T21:20:34.415Z,2.90
2017-10-30T21:23:02.166Z,2.90
2017-10-30T21:25:30.688Z,2.80
2017-10-30T21:27:58.503Z,2.80
2017-10-30T21:30:27.357Z,2.50
2017-10-30T21:32:55.436Z,2.50
2017-10-30T21:35:23.255Z,2.40
2017-10-30T21:37:52.078Z,2.40
2017-10-30T21:40:20.554Z,2.50
2017-10-30T21:42:48.396Z,2.50
2017-10-30T21:45:16.692Z,2.50
2017-10-30T21:47:44.567Z,2.50
2017-10-30T21:50:12.522Z,2.60
2017-10-30T21:52:41.622Z,2.70
2017-10-30T21:55:09.584Z,2.70
2017-10-30T21:57:37.552Z,2.60
2017-10-30T22:00:05.309Z,2.70
2017-10-30T22:02:33.266Z,2.70
2017-10-30T22:05:01.348Z,2.70
2017-10-30T22:07:29.105Z,2.70
2017-10-30T22:09:56.968Z,2.70
2017-10-30T22:12:24.938Z,2.70
2017-10-30T22:14:52.799Z,2.70
2017-10-30T22:17:20.552Z,2.70
2017-10-30T22:19:48.375Z,2.80
2017-10-30T22:22:16.289Z,2.80
2017-10-30T22:24:44.153Z,2.70
2017-10-30T22:27:12.016Z,2.60
2017-10-30T22:29:40.189Z,2.50
2017-10-30T22:32:08.052Z,2.50
2017-10-30T22:34:35.871Z,2.50
2017-10-30T22:37:03.622Z,2.50
2017-10-30T22:39:31.439Z,2.40
2017-10-30T22:41:59.302Z,2.40
2017-10-30T22:44:27.064Z,2.40
2017-10-30T22:46:54.808Z,2.30
2017-10-30T22:49:22.690Z,2.40
2017-10-30T22:51:50.432Z,2.40
2017-10-30T22:54:18.213Z,2.40
2017-10-30T22:56:46.027Z,2.50
2017-10-30T22:59:13.776Z,2.40
2017-10-30T23:01:42.331Z,2.40
2017-10-30T23:04:10.139Z,2.30
2017-10-30T23:06:37.945Z,2.40
2017-10-30T23:09:05.807Z,2.40
2017-10-30T23:11:33.880Z,2.40
2017-10-30T23:14:01.740Z,2.30
2017-10-30T23:16:29.499Z,2.30
2017-10-30T23:18:57.373Z,2.30
2017-10-30T23:21:25.122Z,2.30
2017-10-30T23:23:53.632Z,2.40
2017-10-30T23:26:22.199Z,2.30
2017-10-30T23:28:50.049Z,2.30
2017-10-30T23:31:17.919Z,2.40
2017-10-30T23:33:45.729Z,2.50
2017-10-30T23:36:13.478Z,2.50
2017-10-30T23:38:42.120Z,2.50
2017-10-30T23:41:09.931Z,2.50
2017-10-30T23:43:37.679Z,2.50
2017-10-30T23:46:06.225Z,2.50
2017-10-30T23:48:34.086Z,2.50
2017-10-30T23:51:01.951Z,2.50
2017-10-30T23:53:29.815Z,2.40
2017-10-30T23:55:57.680Z,2.40
2017-10-30T23:58:25.545Z,2.30
